ADDS METAR Data INFO
IDs: Format: Raw Decoded Include TAF

Data at: 0603 UTC 18 Jan 2018

Region: TOP
KATL 180552Z 31010KT 10SM CLR M09/M13 A3040 RMK AO2 SLP312 4/002 T10891133 11056 21089 55000

KBOS 180554Z 32010KT 10SM FEW007 FEW015 OVC031 M01/M03 A3002 RMK AO2 SLP165 60001 T10061028 10006 21006 58020

KBWI 180554Z 29006KT 10SM BKN140 M08/M13 A3025 RMK AO2 SLP246 4/001 T10781133 11056 21078 58014

KCLE 180551Z 20011KT 10SM BKN150 M09/M14 A3024 RMK AO2 SLP255 4/003 T10941139 11089 21100 58026

KCLT 180552Z 33005KT 10SM FEW250 M09/M13 A3031 RMK AO2 SLP271 60000 T10891133 11044 21089 58001

KCVG 180552Z 24007KT 9SM FEW160 M11/M13 A3040 RMK AO2 SLP310 4/003 T11111133 11094 21111 58014

KDCA 180552Z 34011G18KT 10SM BKN150 M07/M14 A3029 RMK AO2 SLP254 T10721144 11044 21072 58013

KDEN 180553Z 20007KT 10SM CLR M03/M10 A3020 RMK AO2 SLP239 T10331100 10072 21044 58015

KDFW 180553Z 19007KT 10SM CLR M04/M13 A3058 RMK AO2 SLP359 T10441133 10006 21044 400561106 58005 $

KDTW 180553Z 23018G23KT 10SM BKN150 M09/M13 A3015 RMK AO2 SLP219 T10891133 11067 21089 56024 $

KEWR 180551Z 30011KT 10SM FEW220 M07/M13 A3015 RMK AO2 SLP210 T10671128 11028 21067 58014

KFLL 180553Z 32010G18KT 10SM BKN250 11/08 A3023 RMK AO2 SLP237 T01110078 10178 20111 52002

KIAD 180552Z 33009KT 10SM SCT090 M09/M14 A3027 RMK AO2 SLP254 T10891144 11056 21089 58016

KIAH 180553Z 36003KT 10SM FEW250 M04/M08 A3064 RMK AO2 SLP377 T10391083 10011 21050 400391072 50002 $

KJFK 180551Z 31011KT 10SM SCT025 SCT180 M06/M11 A3015 RMK AO2 SLP209 T10561111 11017 21056 56017 $

KLAS 180556Z 24003KT 10SM FEW180 BKN220 13/04 A3024 RMK AO2 SLP232 T01330039 10189 20128 55001

KLAX 180553Z 00000KT 10SM CLR 17/14 A3012 RMK AO2 SLP195 T01670139 10194 20161 53006 $

KLGA 180551Z 32011KT 10SM CLR M05/M12 A3014 RMK AO2 SLP205 T10501117 11022 21056 58016

KMCO 180553Z 33011KT 10SM CLR 03/M07 A3033 RMK AO2 SLP270 T00281067 10122 20028 50005 $

KMDW 180553Z 24018G24KT 10SM CLR M07/M12 A3021 RMK AO2 PK WND 24028/0541 SLP249 4/001 T10721122 11072 21078 410611150 58022

KMEM 180554Z 00000KT 10SM CLR M10/M12 A3061 RMK AO2 SLP371 4/001 T11001122 11083 21106 410561139 58002 $

KMIA 180553Z 30007KT 10SM BKN250 13/08 A3024 RMK AO2 SLP241 T01280078 10206 20128 51006

KMSP 180553Z 23008KT 10SM CLR M04/M09 A3003 RMK AO2 SLP184 4/004 T10441089 11028 21044 410281183 56009

KORD 180551Z 25018G25KT 10SM FEW250 M08/M13 A3019 RMK AO2 PK WND 24028/0533 SLP236 4/002 T10781128 11072 21083 410671156 56023

KPDX 180553Z 13005KT 10SM SCT039 BKN050 OVC085 10/09 A2986 RMK AO2 RAE21 SLP112 P0000 60051 T01000089 10100 20078 51007

KPHL 180554Z 29007KT 10SM FEW180 M07/M13 A3022 RMK AO2 SLP234 T10671133 11039 21067 58012

KPHX 180551Z 11005KT 10SM FEW240 13/01 A3017 RMK AO2 SLP210 T01330011 10222 20133 50006

KPIT 180551Z 21008KT 10SM CLR M13/M16 A3028 RMK AO2 SLP287 T11331161 11122 21133 56017

KSAN 180551Z 32004KT 6SM HZ FEW005 FEW250 16/12 A3012 RMK AO2 SLP198 T01560122 10200 20156 55001

KSEA 180553Z 16008KT 10SM FEW041 BKN060 OVC080 11/08 A2976 RMK AO2 SLP086 60034 T01060083 10106 20100 55002

KSFO 180556Z 05005KT 1 1/2SM R28R/5500VP6000FT BR BKN003 12/11 A3017 RMK AO2 SFC VIS 2 SLP216 T01170106 10144 20117 53002

KSLC 180554Z 13006KT 10SM FEW150 BKN230 03/M01 A3032 RMK AO2 SLP266 T00331011 10083 20028 56010

KSTL 180551Z 25006KT 10SM CLR M07/M13 A3046 RMK AO2 SLP331 T10671128 11056 21078 410391161 56020

KTPA 180553Z 36009KT 10SM CLR 04/M06 A3036 RMK AO2 SLP281 T00391061 10083 20039 50003